Time;durP1;ratioP1;P1;durP2;ratioP2;P2;SDS_P1;SDS_P2;PMS_P1;PMS_P2;Temp;Humidity;BMP_temperature;BMP_pressure;BME280_temperature;BME280_humidity;BME280_pressure;Samples;Min_cycle;Max_cycle;Signal;HPM_P1;HPM_P2
2022/09/12 03:48:42;;;;;;;;;;;;;;;19.44;60.31;96859.66;4254182;27;10368;-74
2022/09/12 03:50:45;;;;;;;;;;;;;;;19.69;59.81;96853.03;4238027;27;5712;-73
2022/09/12 03:52:48;;;;;;;;;;;;;;;19.92;59.56;96852.78;4217347;28;5882;-73
2022/09/12 03:54:51;;;;;;;;;;;;;;;20.09;58.88;96860.75;4214770;28;5681;-73
2022/09/12 03:56:53;;;;;;;;;;;;;;;20.21;58.77;96855.25;4224878;27;5663;-72
2022/09/12 03:58:56;;;;;;;;;;;;;;;20.29;58.63;96857.47;4221159;28;5852;-74
2022/09/12 04:00:59;;;;;;;;;;;;;;;20.35;58.81;96856.44;4228533;28;5827;-74
2022/09/12 04:03:02;;;;;;;;;;;;;;;20.42;58.46;96854.41;4231282;28;5682;-74
2022/09/12 04:05:06;;;;;;;;;;;;;;;20.50;58.23;96858.50;4231955;28;5682;-74
2022/09/12 04:07:09;;;;;;;;;;;;;;;20.54;57.95;96855.06;4231146;28;5675;-74
2022/09/12 04:09:12;;;;;;;;;;;;;;;20.58;57.88;96858.03;4231063;28;5663;-74
2022/09/12 04:11:15;;;;;;;;;;;;;;;20.60;57.80;96854.03;4231198;28;5687;-73
2022/09/12 04:13:18;;;;;;;;;;;;;;;20.63;57.78;96855.41;4230958;28;5875;-73
2022/09/12 04:15:20;;;;;;;;;;;;;;;20.65;57.99;96858.66;4230896;28;5679;-73
2022/09/12 04:17:23;;;;;;;;;;;;;;;20.63;57.71;96850.84;4229630;28;5753;-73
2022/09/12 04:19:28;;;;;;;;;;;;;;;20.67;57.82;96859.19;4229690;28;5685;-73
2022/09/12 04:21:32;;;;;;;;;;;;;;;20.67;57.94;96853.81;4236902;27;5088;-72
2022/09/12 04:23:35;;;;;;;;;;;;;;;20.68;57.46;96855.44;4247664;27;5665;-72
2022/09/12 04:25:38;;;;;;;;;;;;;;;20.67;57.45;96853.03;4248019;27;5837;-72
2022/09/12 04:27:41;;;;;;;;;;;;;;;20.64;57.56;96854.34;4248079;27;5657;-72
2022/09/12 04:29:44;;;;;;;;;;;;;;;20.64;57.42;96854.34;4247979;27;5658;-72
2022/09/12 04:31:46;;;;;;;;;;;;;;;20.65;57.54;96864.03;4238789;27;5671;-72
2022/09/12 04:33:53;;;;;;;;;;;;;;;20.65;57.68;96861.34;4229388;28;5670;-72
2022/09/12 04:35:56;;;;;;;;;;;;;;;20.64;57.37;96860.53;4230630;28;5699;-73
2022/09/12 04:38:00;;;;;;;;;;;;;;;20.67;57.46;96861.09;4230429;28;5691;-72
2022/09/12 04:40:03;;;;;;;;;;;;;;;20.69;57.20;96856.25;4230819;28;5671;-73
2022/09/12 04:42:06;;;;;;;;;;;;;;;20.67;57.23;96859.19;4230703;28;5671;-73
2022/09/12 04:44:12;;;;;;;;;;;;;;;20.66;57.50;96856.78;4230910;28;5859;-72
2022/09/12 04:46:18;;;;;;;;;;;;;;;20.65;57.48;96861.34;4230753;28;5666;-72
2022/09/12 04:48:21;;;;;;;;;;;;;;;20.63;57.33;96860.78;4223140;27;5768;-73
2022/09/12 04:50:24;;;;;;;;;;;;;;;20.62;57.52;96859.97;4212646;28;5679;-74
2022/09/12 04:52:26;;;;;;;;;;;;;;;20.64;57.10;96865.09;4206666;28;5736;-74
2022/09/12 04:54:30;;;;;;;;;;;;;;;20.64;57.30;96871.28;4203968;28;5726;-73
2022/09/12 04:56:37;;;;;;;;;;;;;;;20.64;57.13;96865.91;4207202;28;5777;-73
2022/09/12 04:58:40;;;;;;;;;;;;;;;20.64;56.90;96859.72;4212226;28;5675;-73
2022/09/12 05:00:42;;;;;;;;;;;;;;;20.67;56.98;96863.75;4203925;28;5704;-72
2022/09/12 05:02:45;;;;;;;;;;;;;;;20.68;56.91;96865.38;4213918;28;6466;-73
2022/09/12 05:04:48;;;;;;;;;;;;;;;20.69;56.95;96869.69;4205007;28;5813;-73
2022/09/12 05:06:50;;;;;;;;;;;;;;;20.69;57.27;96865.13;4211090;28;5102;-73
2022/09/12 05:08:54;;;;;;;;;;;;;;;20.70;56.73;96857.88;4206310;28;5677;-73
2022/09/12 05:11:02;;;;;;;;;;;;;;;20.72;56.77;96866.47;4217147;28;5638;-73
2022/09/12 05:13:05;;;;;;;;;;;;;;;20.70;56.76;96863.25;4214669;28;5687;-73
2022/09/12 05:15:09;;;;;;;;;;;;;;;20.70;57.12;96858.69;4202385;28;5747;-74
2022/09/12 05:17:11;;;;;;;;;;;;;;;20.74;57.09;96859.81;4205212;28;5679;-74
2022/09/12 05:19:14;;;;;;;;;;;;;;;20.77;57.05;96866.53;4217503;28;5675;-74
2022/09/12 05:21:19;;;;;;;;;;;;;;;20.76;56.86;96857.69;4215067;28;6338;-74
2022/09/12 05:23:23;;;;;;;;;;;;;;;20.77;56.77;96861.97;4206158;28;5878;-74
2022/09/12 05:25:26;;;;;;;;;;;;;;;20.78;57.01;96863.59;4212009;28;5704;-74
2022/09/12 05:27:30;;;;;;;;;;;;;;;20.80;57.06;96864.16;4207259;28;5835;-74
2022/09/12 05:29:33;;;;;;;;;;;;;;;20.79;56.81;96867.91;4201865;28;5724;-74
2022/09/12 05:31:36;;;;;;;;;;;;;;;20.80;56.87;96866.03;4205842;28;5687;-74
2022/09/12 05:33:42;;;;;;;;;;;;;;;20.79;57.01;96875.97;4202044;28;5822;-74
2022/09/12 05:35:51;;;;;;;;;;;;;;;20.79;57.09;96875.97;4210376;28;6637;-72
2022/09/12 05:37:53;;;;;;;;;;;;;;;20.78;57.03;96871.66;4202574;28;5680;-74
2022/09/12 05:39:58;;;;;;;;;;;;;;;20.77;56.90;96880.78;4215385;28;5827;-75
2022/09/12 05:42:01;;;;;;;;;;;;;;;20.81;56.94;96886.44;4218077;28;5668;-73
2022/09/12 05:44:07;;;;;;;;;;;;;;;20.83;56.81;96887.00;4218508;28;5671;-73
2022/09/12 05:46:12;;;;;;;;;;;;;;;20.83;56.84;96887.81;4216028;28;6376;-73
2022/09/12 05:48:16;;;;;;;;;;;;;;;20.84;56.63;96886.78;4215191;28;5873;-73
2022/09/12 05:50:22;;;;;;;;;;;;;;;20.85;56.66;96890.25;4212771;28;5679;-73
2022/09/12 05:52:25;;;;;;;;;;;;;;;20.84;56.67;96884.06;4216089;28;5821;-73
2022/09/12 05:54:28;;;;;;;;;;;;;;;20.85;56.61;96883.00;4209673;28;5860;-73
2022/09/12 05:56:37;;;;;;;;;;;;;;;20.86;56.62;96881.94;4217856;28;5682;-73
2022/09/12 05:58:42;;;;;;;;;;;;;;;20.85;56.96;96877.63;4218278;28;6344;-72
2022/09/12 06:00:48;;;;;;;;;;;;;;;20.84;57.04;96884.06;4200272;28;5708;-72
2022/09/12 06:02:52;;;;;;;;;;;;;;;20.83;56.58;96887.81;4217460;28;5676;-73
2022/09/12 06:04:54;;;;;;;;;;;;;;;20.84;56.74;96897.50;4218028;28;5746;-73
2022/09/12 06:06:58;;;;;;;;;;;;;;;20.85;56.79;96893.75;4217569;28;6397;-73
2022/09/12 06:09:04;;;;;;;;;;;;;;;20.86;56.68;96898.06;4217649;28;5696;-73
2022/09/12 06:11:08;;;;;;;;;;;;;;;20.86;56.88;96887.31;4226092;28;5769;-73
2022/09/12 06:13:10;;;;;;;;;;;;;;;20.87;56.76;96897.00;4217587;28;5679;-72
2022/09/12 06:15:15;;;;;;;;;;;;;;;20.87;57.10;96890.81;4217672;28;5690;-73
2022/09/12 06:17:19;;;;;;;;;;;;;;;20.85;56.61;96896.44;4209495;28;5783;-72
2022/09/12 06:19:23;;;;;;;;;;;;;;;20.83;56.80;96900.44;4213364;28;5810;-72
2022/09/12 06:21:27;;;;;;;;;;;;;;;20.83;56.81;96890.50;4217574;28;5739;-72
2022/09/12 06:23:30;;;;;;;;;;;;;;;20.82;56.91;96896.94;4217104;28;6499;-72
2022/09/12 06:25:33;;;;;;;;;;;;;;;20.84;56.88;96894.81;4214237;28;5840;-72
2022/09/12 06:27:36;;;;;;;;;;;;;;;20.83;56.56;96895.88;4206547;28;5810;-73
2022/09/12 06:29:38;;;;;;;;;;;;;;;20.80;56.86;96885.63;4208018;28;5770;-73
2022/09/12 06:31:43;;;;;;;;;;;;;;;20.81;56.46;96895.31;4215736;28;5660;-73
2022/09/12 06:33:50;;;;;;;;;;;;;;;20.82;56.56;96891.56;4216563;28;5750;-73
2022/09/12 06:35:53;;;;;;;;;;;;;;;20.80;56.42;96893.69;4201816;28;5703;-73
2022/09/12 06:37:56;;;;;;;;;;;;;;;20.82;56.35;96894.25;4213323;28;5767;-72
2022/09/12 06:39:59;;;;;;;;;;;;;;;20.81;56.51;96892.63;4200572;28;5712;-72
2022/09/12 06:42:04;;;;;;;;;;;;;;;20.83;56.72;96895.88;4205488;28;5713;-73
2022/09/12 06:44:07;;;;;;;;;;;;;;;20.85;56.49;96904.50;4216954;28;5683;-73
2022/09/12 06:46:11;;;;;;;;;;;;;;;20.88;56.40;96898.63;4215722;28;5904;-73
2022/09/12 06:48:15;;;;;;;;;;;;;;;20.89;56.63;96897.53;4213158;28;5646;-74
2022/09/12 06:50:19;;;;;;;;;;;;;;;20.91;56.60;96897.28;4209935;28;5746;-73
2022/09/12 06:52:22;;;;;;;;;;;;;;;20.92;56.76;96899.72;4210581;28;5715;-72
2022/09/12 06:54:25;;;;;;;;;;;;;;;20.93;56.35;96898.63;4205244;28;5679;-73
2022/09/12 06:56:28;;;;;;;;;;;;;;;20.92;56.68;96899.72;4214625;28;5856;-73
2022/09/12 06:58:31;;;;;;;;;;;;;;;20.94;56.55;96896.75;4217198;28;5683;-72
2022/09/12 07:00:34;;;;;;;;;;;;;;;20.94;56.55;96902.94;4216189;28;5812;-73
2022/09/12 07:02:37;;;;;;;;;;;;;;;20.91;56.54;96908.84;4214632;28;6027;-72
2022/09/12 07:04:39;;;;;;;;;;;;;;;20.90;56.50;96904.53;4216648;28;5679;-72
2022/09/12 07:06:44;;;;;;;;;;;;;;;20.93;56.44;96912.06;4208654;28;5939;-73
2022/09/12 07:08:48;;;;;;;;;;;;;;;20.96;56.42;96901.91;4215292;28;6351;-73
2022/09/12 07:10:51;;;;;;;;;;;;;;;20.96;56.28;96907.28;4208802;28;5775;-73
2022/09/12 07:12:54;;;;;;;;;;;;;;;20.98;56.26;96903.25;4203157;28;5981;-73
2022/09/12 07:14:58;;;;;;;;;;;;;;;21.00;56.44;96905.69;4199017;28;6451;-72
2022/09/12 07:17:00;;;;;;;;;;;;;;;21.01;56.10;96902.75;4211860;28;5861;-74
2022/09/12 07:19:06;;;;;;;;;;;;;;;21.01;56.04;96896.56;4214677;28;5687;-74
2022/09/12 07:21:12;;;;;;;;;;;;;;;20.98;56.19;96900.56;4217137;28;5770;-73
2022/09/12 07:23:17;;;;;;;;;;;;;;;21.01;56.11;96901.94;4200143;28;5689;-73
2022/09/12 07:25:19;;;;;;;;;;;;;;;21.01;56.44;96904.63;4216820;28;5670;-73
2022/09/12 07:27:26;;;;;;;;;;;;;;;21.05;56.24;96897.66;4202589;28;5677;-72
2022/09/12 07:29:29;;;;;;;;;;;;;;;21.05;56.18;96900.34;4203310;28;5711;-72
2022/09/12 07:31:39;;;;;;;;;;;;;;;21.05;56.22;96900.34;4214502;28;6465;-73
2022/09/12 07:33:45;;;;;;;;;;;;;;;21.07;56.13;96893.66;4214305;28;5650;-72
2022/09/12 07:35:53;;;;;;;;;;;;;;;21.10;56.44;96900.41;4202429;28;5923;-73
2022/09/12 07:37:56;;;;;;;;;;;;;;;21.11;56.26;96891.25;4199985;28;5956;-73
2022/09/12 07:40:01;;;;;;;;;;;;;;;21.13;56.15;96897.19;4199658;28;5701;-73
2022/09/12 07:42:04;;;;;;;;;;;;;;;21.12;56.38;96892.88;4215483;28;5757;-73
2022/09/12 07:44:07;;;;;;;;;;;;;;;21.12;56.34;96898.25;4211522;28;5679;-73
2022/09/12 07:46:11;;;;;;;;;;;;;;;21.13;56.49;96898.00;4215464;28;5672;-73
2022/09/12 07:48:15;;;;;;;;;;;;;;;21.14;56.26;96890.75;4212807;28;5667;-73
2022/09/12 07:50:18;;;;;;;;;;;;;;;21.15;56.25;96900.41;4213288;28;5778;-73
2022/09/12 07:52:21;;;;;;;;;;;;;;;21.18;56.42;96897.25;4214879;28;5770;-72
2022/09/12 07:54:25;;;;;;;;;;;;;;;21.20;56.21;96895.09;4202116;28;5627;-73
2022/09/12 07:56:29;;;;;;;;;;;;;;;21.20;56.38;96897.78;4216545;28;6523;-72
2022/09/12 07:58:40;;;;;;;;;;;;;;;21.19;56.29;96888.91;4216776;28;5793;-73
2022/09/12 08:00:47;;;;;;;;;;;;;;;21.20;56.09;96889.72;4216639;28;5676;-72
2022/09/12 08:02:52;;;;;;;;;;;;;;;21.21;56.32;96891.34;4213415;28;5762;-72
2022/09/12 08:04:56;;;;;;;;;;;;;;;21.23;56.62;96894.56;4209995;28;6385;-72
2022/09/12 08:06:59;;;;;;;;;;;;;;;21.25;56.14;96892.44;4215140;28;5676;-72
2022/09/12 08:09:03;;;;;;;;;;;;;;;21.29;56.53;96895.44;4215634;28;5735;-72
2022/09/12 08:11:08;;;;;;;;;;;;;;;21.29;56.11;96890.88;4213793;28;5630;-72
2022/09/12 08:13:13;;;;;;;;;;;;;;;21.28;56.22;96897.31;4216212;28;5664;-72
2022/09/12 08:15:16;;;;;;;;;;;;;;;21.29;56.09;96892.75;4216633;28;5671;-73
2022/09/12 08:17:22;;;;;;;;;;;;;;;21.30;56.18;96892.50;4203147;28;5806;-72
2022/09/12 08:19:27;;;;;;;;;;;;;;;21.32;56.37;96894.94;4215696;28;5683;-71
2022/09/12 08:21:32;;;;;;;;;;;;;;;21.34;56.30;96903.56;4209755;28;5885;-72
2022/09/12 08:23:35;;;;;;;;;;;;;;;21.35;56.20;96897.91;4208233;28;5664;-72
2022/09/12 08:25:38;;;;;;;;;;;;;;;21.37;56.07;96901.16;4210298;28;5842;-72
2022/09/12 08:27:42;;;;;;;;;;;;;;;21.37;56.28;96906.53;4216223;28;5692;-73
2022/09/12 08:29:46;;;;;;;;;;;;;;;21.41;55.93;96913.03;4217664;28;5668;-73
2022/09/12 08:31:49;;;;;;;;;;;;;;;21.43;56.11;96910.06;4218168;28;5675;-73
2022/09/12 08:33:59;;;;;;;;;;;;;;;21.45;55.83;96913.31;4217379;28;5974;-73
2022/09/12 08:36:04;;;;;;;;;;;;;;;21.46;55.93;96902.28;4211010;28;5700;-73
2022/09/12 08:38:07;;;;;;;;;;;;;;;21.49;55.71;96904.44;4202256;28;5704;-73
2022/09/12 08:40:17;;;;;;;;;;;;;;;21.50;55.68;96908.75;4206070;28;5757;-73
2022/09/12 08:42:39;;;;;;;;;;;;;;;21.50;55.93;96916.00;4213998;28;5727;-73
2022/09/12 08:45:03;;;;;;;;;;;;;;;21.53;55.93;96904.75;4218381;28;6438;-73
2022/09/12 08:47:17;;;;;;;;;;;;;;;21.53;55.83;96904.75;4218310;28;5655;-72
2022/09/12 08:49:28;;;;;;;;;;;;;;;21.53;55.53;96904.75;4217690;28;6517;-72
2022/09/12 08:51:33;;;;;;;;;;;;;;;21.57;55.86;96899.66;4217583;28;5667;-73
2022/09/12 08:53:37;;;;;;;;;;;;;;;21.59;55.80;96909.09;4218298;28;5668;-72
2022/09/12 08:55:44;;;;;;;;;;;;;;;21.60;55.45;96916.09;4217658;28;5645;-72
2022/09/12 08:57:47;;;;;;;;;;;;;;;21.61;55.68;96922.28;4219685;28;5795;-72
2022/09/12 08:59:52;;;;;;;;;;;;;;;21.61;55.89;96916.88;4219209;28;5687;-72
2022/09/12 09:01:59;;;;;;;;;;;;;;;21.63;55.41;96920.13;4215358;28;5678;-73
2022/09/12 09:04:30;;;;;;;;;;;;;;;21.65;55.69;96918.81;4214313;28;6350;-73
2022/09/12 09:06:58;;;;;;;;;;;;;;;21.66;55.49;96917.75;4214269;28;5757;-73
2022/09/12 09:09:08;;;;;;;;;;;;;;;21.68;55.36;96920.97;4202109;28;5806;-73
2022/09/12 09:11:25;;;;;;;;;;;;;;;21.67;55.21;96915.88;4211142;28;5671;-73
2022/09/12 09:16:15;;;;;;;;;;;;;;;21.67;55.16;96919.38;4213321;28;5675;-73
2022/09/12 09:18:22;;;;;;;;;;;;;;;21.71;55.44;96915.06;4216122;28;5754;-73
2022/09/12 09:20:30;;;;;;;;;;;;;;;21.74;55.38;96911.84;4213299;28;5678;-73
2022/09/12 09:22:42;;;;;;;;;;;;;;;21.77;54.97;96911.34;4217337;28;5738;-72
2022/09/12 09:24:52;;;;;;;;;;;;;;;21.78;55.15;96914.84;4217544;28;5849;-73
2022/09/12 09:27:00;;;;;;;;;;;;;;;21.77;55.01;96899.78;4202129;28;5736;-73
2022/09/12 09:29:14;;;;;;;;;;;;;;;21.80;54.98;96899.25;4206346;28;5739;-73
2022/09/12 09:31:21;;;;;;;;;;;;;;;21.80;54.98;96896.56;4205300;28;5672;-73
2022/09/12 09:33:28;;;;;;;;;;;;;;;21.83;54.85;96890.63;4218677;28;5707;-72
2022/09/12 09:35:41;;;;;;;;;;;;;;;21.86;55.21;96897.38;4218519;28;5711;-72
2022/09/12 09:37:54;;;;;;;;;;;;;;;21.87;54.99;96890.94;4202106;28;5862;-73
2022/09/12 09:40:11;;;;;;;;;;;;;;;21.90;55.09;96893.09;4217326;28;5615;-73
2022/09/12 09:42:34;;;;;;;;;;;;;;;21.91;55.13;96894.72;4218344;28;5638;-73
2022/09/12 09:44:37;;;;;;;;;;;;;;;21.93;54.95;96898.75;4215976;28;5685;-74
2022/09/12 09:46:42;;;;;;;;;;;;;;;21.95;55.01;96899.31;4218219;28;5671;-74
2022/09/12 09:48:48;;;;;;;;;;;;;;;21.96;54.97;96903.63;4217284;28;5794;-72
2022/09/12 09:50:51;;;;;;;;;;;;;;;21.97;55.03;96899.88;4201687;28;5808;-73
2022/09/12 09:52:58;;;;;;;;;;;;;;;21.97;54.69;96890.97;4201079;28;5704;-73
2022/09/12 09:55:02;;;;;;;;;;;;;;;21.97;54.90;96899.03;4210659;28;6455;-74
2022/09/12 09:57:05;;;;;;;;;;;;;;;21.95;54.69;96896.63;4218247;28;5731;-73
2022/09/12 09:59:10;;;;;;;;;;;;;;;21.98;54.99;96887.22;4216500;28;5667;-74
2022/09/12 10:01:16;;;;;;;;;;;;;;;22.00;54.80;96887.75;4218229;28;5671;-72
2022/09/12 10:03:32;;;;;;;;;;;;;;;22.04;54.72;96888.84;4218215;28;5746;-73
2022/09/12 10:05:45;;;;;;;;;;;;;;;22.06;54.98;96887.53;4210965;28;5424;-72
2022/09/12 10:07:50;;;;;;;;;;;;;;;22.07;54.56;96889.16;4215089;28;5667;-72
2022/09/12 10:10:05;;;;;;;;;;;;;;;22.06;54.53;96882.16;4216642;28;5699;-72
2022/09/12 10:12:20;;;;;;;;;;;;;;;22.03;54.54;96892.63;4216798;28;6487;-73
2022/09/12 10:14:36;;;;;;;;;;;;;;;22.00;55.04;96887.75;4217949;28;5759;-73
2022/09/12 10:16:51;;;;;;;;;;;;;;;21.99;54.94;96876.19;4218144;28;5706;-73
2022/09/12 10:18:57;;;;;;;;;;;;;;;22.02;54.68;96882.94;4218150;28;5722;-73
2022/09/12 10:21:02;;;;;;;;;;;;;;;22.04;55.02;96862.72;4217438;28;5675;-73
2022/09/12 10:23:29;;;;;;;;;;;;;;;22.06;54.51;96866.00;4218217;28;5668;-73
2022/09/12 10:25:32;;;;;;;;;;;;;;;22.11;55.01;96867.91;4216302;28;5702;-73
2022/09/12 10:27:35;;;;;;;;;;;;;;;22.12;54.78;96864.16;4216896;28;5730;-73
2022/09/12 10:29:42;;;;;;;;;;;;;;;22.17;54.43;96863.34;4215137;28;5146;-73
2022/09/12 10:31:51;;;;;;;;;;;;;;;22.20;54.73;96858.25;4217743;28;5676;-71
2022/09/12 10:33:57;;;;;;;;;;;;;;;22.24;54.36;96869.28;4217810;28;5675;-72
2022/09/12 10:36:00;;;;;;;;;;;;;;;22.26;54.23;96867.13;4216953;28;5699;-72
2022/09/12 10:38:06;;;;;;;;;;;;;;;22.26;54.60;96862.56;4216661;28;5728;-72
2022/09/12 10:40:23;;;;;;;;;;;;;;;22.25;54.54;96862.84;4209636;28;5872;-73
2022/09/12 10:42:47;;;;;;;;;;;;;;;22.26;54.43;96865.25;4217448;28;5674;-73
2022/09/12 10:44:54;;;;;;;;;;;;;;;22.29;54.24;96863.91;4217947;28;5704;-73
2022/09/12 10:46:58;;;;;;;;;;;;;;;22.31;54.24;96867.13;4215731;28;5679;-73
2022/09/12 10:49:21;;;;;;;;;;;;;;;22.33;54.47;96859.63;4217120;28;5695;-73
2022/09/12 10:51:28;;;;;;;;;;;;;;;22.36;54.71;96864.47;4212236;28;5833;-73
2022/09/12 10:53:40;;;;;;;;;;;;;;;22.37;54.38;96858.81;4216759;28;5147;-73
2022/09/12 10:56:01;;;;;;;;;;;;;;;22.39;54.34;96858.53;4217740;28;5645;-73
2022/09/12 10:58:16;;;;;;;;;;;;;;;22.40;54.11;96851.28;4214785;28;5750;-72
2022/09/12 11:00:26;;;;;;;;;;;;;;;22.40;54.10;96854.78;4215941;28;5653;-72
2022/09/12 11:02:30;;;;;;;;;;;;;;;22.40;54.49;96857.47;4207773;28;5772;-72
2022/09/12 11:04:52;;;;;;;;;;;;;;;22.40;54.22;96857.47;4219654;28;5676;-72
2022/09/12 11:07:09;;;;;;;;;;;;;;;22.39;54.42;96842.38;4205612;28;5675;-72
2022/09/12 11:09:23;;;;;;;;;;;;;;;22.36;54.10;96842.94;4200059;28;5705;-72
2022/09/12 11:11:42;;;;;;;;;;;;;;;22.37;53.67;96845.34;4202885;28;5676;-72
2022/09/12 11:13:59;;;;;;;;;;;;;;;22.38;53.69;96840.78;4210563;28;5940;-72
2022/09/12 11:16:14;;;;;;;;;;;;;;;22.40;54.14;96840.50;4211955;28;5662;-72
2022/09/12 11:18:36;;;;;;;;;;;;;;;22.42;53.90;96839.16;4215083;28;5697;-72
2022/09/12 11:20:55;;;;;;;;;;;;;;;22.45;53.82;96841.34;4214463;28;5682;-72
2022/09/12 11:23:30;;;;;;;;;;;;;;;22.47;53.47;96839.19;4208320;28;5850;-72
2022/09/12 11:25:40;;;;;;;;;;;;;;;22.51;53.74;96840.25;4203390;28;5906;-72
2022/09/12 11:28:12;;;;;;;;;;;;;;;22.53;53.53;96839.97;4200248;28;5692;-72
2022/09/12 11:30:17;;;;;;;;;;;;;;;22.54;53.29;96828.94;4199706;28;5866;-72
2022/09/12 11:33:00;;;;;;;;;;;;;;;22.56;53.24;96826.00;4210479;28;5817;-72
2022/09/12 11:35:10;;;;;;;;;;;;;;;22.58;53.39;96827.31;4204477;28;5713;-72
2022/09/12 11:37:37;;;;;;;;;;;;;;;22.61;53.15;96823.28;4213848;28;5789;-72
2022/09/12 11:39:43;;;;;;;;;;;;;;;22.62;52.80;96823.00;4215967;28;5659;-72
2022/09/12 11:41:52;;;;;;;;;;;;;;;22.65;53.10;96825.19;4202952;28;5701;-73
2022/09/12 11:44:00;;;;;;;;;;;;;;;22.70;52.66;96820.88;4200704;28;5697;-73
2022/09/12 11:46:12;;;;;;;;;;;;;;;22.71;53.13;96822.47;4210811;28;5684;-74
2022/09/12 11:48:35;;;;;;;;;;;;;;;22.73;52.89;96818.44;4201708;28;5083;-73
2022/09/12 11:50:39;;;;;;;;;;;;;;;22.75;53.02;96810.88;4201596;28;5762;-73
2022/09/12 11:52:45;;;;;;;;;;;;;;;22.77;52.96;96810.63;4214854;28;5816;-73
2022/09/12 11:54:56;;;;;;;;;;;;;;;22.79;52.56;96813.88;4210823;28;5806;-73
2022/09/12 11:57:08;;;;;;;;;;;;;;;22.80;52.72;96818.16;4206413;28;5735;-74
2022/09/12 11:59:18;;;;;;;;;;;;;;;22.81;52.44;96817.09;4216212;28;5822;-73
2022/09/12 12:01:26;;;;;;;;;;;;;;;22.83;52.90;96814.94;4218375;28;5671;-73
2022/09/12 12:03:34;;;;;;;;;;;;;;;22.84;52.89;96812.00;4216617;28;5778;-73
2022/09/12 12:05:43;;;;;;;;;;;;;;;22.86;52.71;96800.94;4211796;28;5893;-73
2022/09/12 12:07:52;;;;;;;;;;;;;;;22.87;52.68;96806.06;4219381;28;5813;-74
2022/09/12 12:09:55;;;;;;;;;;;;;;;22.88;52.32;96806.88;4218691;28;5205;-73
2022/09/12 12:12:21;;;;;;;;;;;;;;;22.89;52.68;96803.09;4220670;28;5676;-73
2022/09/12 12:14:29;;;;;;;;;;;;;;;22.88;52.14;96799.59;4219580;28;5679;-73
2022/09/12 12:16:36;;;;;;;;;;;;;;;22.89;52.46;96797.72;4219478;28;5683;-73
2022/09/12 12:18:40;;;;;;;;;;;;;;;22.92;51.78;96797.97;4215789;28;5786;-73
2022/09/12 12:20:43;;;;;;;;;;;;;;;22.93;52.18;96796.09;4215552;28;5802;-73
2022/09/12 12:22:53;;;;;;;;;;;;;;;22.96;52.04;96790.13;4215014;28;5809;-73
2022/09/12 12:25:03;;;;;;;;;;;;;;;22.97;51.61;96783.66;4219095;28;5770;-73
2022/09/12 12:27:24;;;;;;;;;;;;;;;22.97;51.47;96788.25;4219330;28;5789;-73
2022/09/12 12:29:42;;;;;;;;;;;;;;;23.02;51.31;96782.88;4218476;28;5966;-73
2022/09/12 12:32:20;;;;;;;;;;;;;;;23.04;51.05;96784.22;4215953;28;5758;-73
2022/09/12 12:34:28;;;;;;;;;;;;;;;23.04;51.06;96778.00;4209074;28;5755;-73
2022/09/12 12:36:35;;;;;;;;;;;;;;;23.05;51.27;96777.72;4224133;28;5650;-72
2022/09/12 12:38:40;;;;;;;;;;;;;;;23.05;50.95;96785.81;4228127;28;5846;-72
2022/09/12 12:40:43;;;;;;;;;;;;;;;23.05;50.91;96779.63;4218834;28;5672;-72
2022/09/12 12:42:58;;;;;;;;;;;;;;;23.07;50.60;96772.06;4218841;28;5754;-73
2022/09/12 12:45:03;;;;;;;;;;;;;;;23.09;50.47;96765.31;4217695;28;5842;-73
2022/09/12 12:47:16;;;;;;;;;;;;;;;23.10;50.70;96766.91;4217105;28;5843;-72
2022/09/12 12:49:27;;;;;;;;;;;;;;;23.12;50.40;96764.78;4214920;28;5660;-73
2022/09/12 12:51:34;;;;;;;;;;;;;;;23.13;50.47;96760.19;4216345;27;6332;-72
2022/09/12 12:53:41;;;;;;;;;;;;;;;23.14;50.57;96757.22;4218243;28;5830;-73
2022/09/12 12:55:49;;;;;;;;;;;;;;;23.18;50.41;96757.47;4216937;28;5678;-73
2022/09/12 12:57:53;;;;;;;;;;;;;;;23.20;49.92;96763.38;4215014;28;5661;-72
2022/09/12 13:00:01;;;;;;;;;;;;;;;23.20;50.23;96766.91;4215934;28;5901;-72
2022/09/12 13:02:04;;;;;;;;;;;;;;;23.22;49.87;96763.94;4218494;28;5666;-73
2022/09/12 13:04:15;;;;;;;;;;;;;;;23.22;49.78;96759.38;4218635;28;5762;-73
2022/09/12 13:06:31;;;;;;;;;;;;;;;23.23;49.93;96760.97;4214323;28;5793;-73
2022/09/12 13:08:36;;;;;;;;;;;;;;;23.24;49.69;96751.81;4215592;28;5687;-73
2022/09/12 13:10:51;;;;;;;;;;;;;;;23.24;49.60;96746.41;4217975;28;5679;-73
2022/09/12 13:12:56;;;;;;;;;;;;;;;23.27;49.77;96749.63;4218832;28;5671;-73
2022/09/12 13:15:04;;;;;;;;;;;;;;;23.29;49.34;96744.75;4218951;28;5795;-73
2022/09/12 13:17:15;;;;;;;;;;;;;;;23.29;49.56;96744.75;4218686;28;5791;-73
2022/09/12 13:19:26;;;;;;;;;;;;;;;23.31;49.54;96745.28;4211495;28;5780;-73
2022/09/12 13:21:29;;;;;;;;;;;;;;;23.33;49.76;96741.25;4202323;28;5831;-73
2022/09/12 13:23:34;;;;;;;;;;;;;;;23.34;49.56;96736.66;4213214;28;5664;-73
2022/09/12 13:25:37;;;;;;;;;;;;;;;23.35;49.60;96738.28;4234198;28;5768;-74
2022/09/12 13:27:57;;;;;;;;;;;;;;;23.37;49.31;96731.53;4233806;27;5666;-73
2022/09/12 13:30:06;;;;;;;;;;;;;;;23.40;49.36;96732.84;4227299;28;5687;-73
2022/09/12 13:32:09;;;;;;;;;;;;;;;23.41;49.34;96732.56;4216465;28;5824;-73
2022/09/12 13:34:19;;;;;;;;;;;;;;;23.43;49.10;96729.59;4223407;27;5766;-74
2022/09/12 13:36:48;;;;;;;;;;;;;;;23.43;49.15;96721.50;4233517;28;5656;-73
2022/09/12 13:39:19;;;;;;;;;;;;;;;23.48;48.91;96724.19;4230341;28;5659;-73
2022/09/12 13:41:39;;;;;;;;;;;;;;;23.49;48.81;96721.22;4221738;27;5788;-74
2022/09/12 13:43:46;;;;;;;;;;;;;;;23.50;48.77;96727.41;4217802;28;5885;-74
2022/09/12 13:45:49;;;;;;;;;;;;;;;23.48;48.58;96719.59;4217735;28;5807;-74
2022/09/12 13:47:59;;;;;;;;;;;;;;;23.50;48.30;96714.72;4217509;28;5862;-74
2022/09/12 13:50:04;;;;;;;;;;;;;;;23.52;48.56;96711.75;4223472;28;5728;-73
2022/09/12 13:52:17;;;;;;;;;;;;;;;23.52;48.60;96709.06;4222264;28;5809;-73
2022/09/12 13:54:20;;;;;;;;;;;;;;;23.52;48.11;96704.47;4216150;28;5742;-73
2022/09/12 13:56:26;;;;;;;;;;;;;;;23.53;48.49;96699.88;4215958;28;5803;-73
2022/09/12 13:58:31;;;;;;;;;;;;;;;23.56;48.31;96701.19;4217298;28;5765;-73
2022/09/12 14:00:36;;;;;;;;;;;;;;;23.56;47.88;96702.03;4217518;28;5703;-73
2022/09/12 14:02:40;;;;;;;;;;;;;;;23.59;47.91;96693.41;4217674;28;5770;-74
2022/09/12 14:05:10;;;;;;;;;;;;;;;23.61;47.97;96688.53;4217526;28;5762;-73
2022/09/12 14:07:17;;;;;;;;;;;;;;;23.62;47.84;96682.03;4229650;28;5859;-73
2022/09/12 14:09:24;;;;;;;;;;;;;;;23.63;47.55;96682.84;4217334;28;5659;-73
2022/09/12 14:11:29;;;;;;;;;;;;;;;23.66;47.30;96683.09;4213556;28;5730;-73
2022/09/12 14:13:33;;;;;;;;;;;;;;;23.63;47.17;96680.97;4217307;28;5750;-73
2022/09/12 14:15:45;;;;;;;;;;;;;;;23.63;47.11;96672.06;4217706;28;6492;-73
2022/09/12 14:17:51;;;;;;;;;;;;;;;23.62;47.18;96663.16;4217617;28;5711;-74
2022/09/12 14:19:57;;;;;;;;;;;;;;;23.66;46.72;96668.78;4217575;28;5077;-73
2022/09/12 14:22:01;;;;;;;;;;;;;;;23.66;47.29;96672.28;4230097;28;5764;-73
2022/09/12 14:24:07;;;;;;;;;;;;;;;23.67;46.88;96668.53;4228641;28;5677;-73
2022/09/12 14:26:13;;;;;;;;;;;;;;;23.69;46.62;96671.75;4219190;28;5870;-73
2022/09/12 14:28:19;;;;;;;;;;;;;;;23.68;46.77;96672.84;4211820;28;5675;-73
2022/09/12 14:30:29;;;;;;;;;;;;;;;23.68;46.67;96666.66;4214314;28;5691;-73
2022/09/12 14:32:34;;;;;;;;;;;;;;;23.69;46.88;96662.88;4210641;28;5715;-73
2022/09/12 14:34:38;;;;;;;;;;;;;;;23.71;46.53;96668.78;4209049;28;5751;-73
2022/09/12 14:36:45;;;;;;;;;;;;;;;23.73;46.25;96663.91;4213453;28;5703;-73
2022/09/12 14:38:51;;;;;;;;;;;;;;;23.74;46.23;96663.63;4214374;28;5797;-73
2022/09/12 14:41:00;;;;;;;;;;;;;;;23.77;46.30;96657.66;4211277;28;5694;-72
2022/09/12 14:43:04;;;;;;;;;;;;;;;23.79;46.44;96649.31;4206746;28;5685;-72
2022/09/12 14:45:16;;;;;;;;;;;;;;;23.81;46.37;96653.31;4208416;28;5680;-72
2022/09/12 14:47:22;;;;;;;;;;;;;;;23.81;46.31;96658.72;4204177;28;5830;-72
2022/09/12 14:49:31;;;;;;;;;;;;;;;23.82;46.13;96651.44;4207632;28;5836;-73
2022/09/12 14:51:36;;;;;;;;;;;;;;;23.83;46.55;96653.03;4215321;28;5679;-72
2022/09/12 14:53:48;;;;;;;;;;;;;;;23.85;46.31;96653.56;4213688;28;5915;-73
2022/09/12 14:55:55;;;;;;;;;;;;;;;23.86;46.25;96659.75;4216222;28;5682;-72
2022/09/12 14:58:14;;;;;;;;;;;;;;;23.85;46.70;96653.56;4225313;28;5721;-72
2022/09/12 15:00:23;;;;;;;;;;;;;;;23.86;46.34;96644.38;4212577;28;5680;-72
2022/09/12 15:02:26;;;;;;;;;;;;;;;23.85;46.09;96642.75;4216582;28;5761;-72
2022/09/12 15:04:40;;;;;;;;;;;;;;;23.85;46.42;96648.16;4211809;28;5775;-72